sensor_id;sensor_type;location;lat;lon;timestamp;temperature;humidity
2783;DHT22;1399;47.072;15.452;2024-01-06T00:01:37;11.20;53.50
2783;DHT22;1399;47.072;15.452;2024-01-06T00:04:03;11.20;53.50
2783;DHT22;1399;47.072;15.452;2024-01-06T00:06:29;11.20;53.60
2783;DHT22;1399;47.072;15.452;2024-01-06T00:08:54;11.20;53.50
2783;DHT22;1399;47.072;15.452;2024-01-06T00:11:21;11.20;53.40
2783;DHT22;1399;47.072;15.452;2024-01-06T00:13:47;11.20;53.40
2783;DHT22;1399;47.072;15.452;2024-01-06T00:16:13;11.20;53.40
2783;DHT22;1399;47.072;15.452;2024-01-06T00:18:42;11.20;53.50
2783;DHT22;1399;47.072;15.452;2024-01-06T00:21:08;11.20;53.50
2783;DHT22;1399;47.072;15.452;2024-01-06T00:23:34;11.20;53.40
2783;DHT22;1399;47.072;15.452;2024-01-06T00:25:59;11.20;53.40
2783;DHT22;1399;47.072;15.452;2024-01-06T00:28:25;11.20;53.90
2783;DHT22;1399;47.072;15.452;2024-01-06T00:30:51;11.20;53.30
2783;DHT22;1399;47.072;15.452;2024-01-06T00:33:17;11.30;53.30
2783;DHT22;1399;47.072;15.452;2024-01-06T00:35:43;11.30;53.30
2783;DHT22;1399;47.072;15.452;2024-01-06T00:38:08;11.30;53.30
2783;DHT22;1399;47.072;15.452;2024-01-06T00:40:34;11.30;53.20
2783;DHT22;1399;47.072;15.452;2024-01-06T00:43:01;11.30;53.30
2783;DHT22;1399;47.072;15.452;2024-01-06T00:45:27;11.30;53.20
2783;DHT22;1399;47.072;15.452;2024-01-06T00:47:53;11.30;53.20
2783;DHT22;1399;47.072;15.452;2024-01-06T00:50:19;11.30;53.20
2783;DHT22;1399;47.072;15.452;2024-01-06T00:52:45;11.30;53.30
2783;DHT22;1399;47.072;15.452;2024-01-06T00:55:11;11.30;53.30
2783;DHT22;1399;47.072;15.452;2024-01-06T00:57:37;11.30;53.20
2783;DHT22;1399;47.072;15.452;2024-01-06T01:00:05;11.30;53.20
2783;DHT22;1399;47.072;15.452;2024-01-06T01:02:31;11.30;53.10
2783;DHT22;1399;47.072;15.452;2024-01-06T01:04:57;11.30;53.10
2783;DHT22;1399;47.072;15.452;2024-01-06T01:07:24;11.30;53.10
2783;DHT22;1399;47.072;15.452;2024-01-06T01:09:50;11.30;53.20
2783;DHT22;1399;47.072;15.452;2024-01-06T01:12:16;11.30;53.20
2783;DHT22;1399;47.072;15.452;2024-01-06T01:14:41;11.30;53.20
2783;DHT22;1399;47.072;15.452;2024-01-06T01:17:07;11.30;53.20
2783;DHT22;1399;47.072;15.452;2024-01-06T01:19:33;11.30;53.10
2783;DHT22;1399;47.072;15.452;2024-01-06T01:21:58;11.30;53.10
2783;DHT22;1399;47.072;15.452;2024-01-06T01:24:24;11.30;53.20
2783;DHT22;1399;47.072;15.452;2024-01-06T01:26:50;11.30;53.20
2783;DHT22;1399;47.072;15.452;2024-01-06T01:29:19;11.30;53.20
2783;DHT22;1399;47.072;15.452;2024-01-06T01:31:46;11.30;53.70
2783;DHT22;1399;47.072;15.452;2024-01-06T01:34:12;11.30;53.10
2783;DHT22;1399;47.072;15.452;2024-01-06T01:36:39;11.30;53.10
2783;DHT22;1399;47.072;15.452;2024-01-06T01:39:05;11.30;53.00
2783;DHT22;1399;47.072;15.452;2024-01-06T01:41:31;11.40;53.10
2783;DHT22;1399;47.072;15.452;2024-01-06T01:43:56;11.40;53.00
2783;DHT22;1399;47.072;15.452;2024-01-06T01:46:29;11.40;53.00
2783;DHT22;1399;47.072;15.452;2024-01-06T01:48:56;11.40;53.00
2783;DHT22;1399;47.072;15.452;2024-01-06T01:51:24;11.40;53.00
2783;DHT22;1399;47.072;15.452;2024-01-06T01:53:52;11.40;52.90
2783;DHT22;1399;47.072;15.452;2024-01-06T01:56:19;11.40;52.80
2783;DHT22;1399;47.072;15.452;2024-01-06T01:58:46;11.40;52.80
2783;DHT22;1399;47.072;15.452;2024-01-06T02:01:12;11.40;52.80
2783;DHT22;1399;47.072;15.452;2024-01-06T02:03:41;11.40;52.80
2783;DHT22;1399;47.072;15.452;2024-01-06T02:06:09;11.40;52.80
2783;DHT22;1399;47.072;15.452;2024-01-06T02:08:35;11.40;52.80
2783;DHT22;1399;47.072;15.452;2024-01-06T02:11:01;11.40;52.80
2783;DHT22;1399;47.072;15.452;2024-01-06T02:13:37;11.40;52.80
2783;DHT22;1399;47.072;15.452;2024-01-06T02:16:04;11.40;52.80
2783;DHT22;1399;47.072;15.452;2024-01-06T02:18:33;11.40;52.80
2783;DHT22;1399;47.072;15.452;2024-01-06T02:21:01;11.40;53.50
2783;DHT22;1399;47.072;15.452;2024-01-06T02:23:27;11.40;52.90
2783;DHT22;1399;47.072;15.452;2024-01-06T02:25:53;11.40;53.50
2783;DHT22;1399;47.072;15.452;2024-01-06T02:28:19;11.40;52.90
2783;DHT22;1399;47.072;15.452;2024-01-06T02:30:45;11.40;52.90
2783;DHT22;1399;47.072;15.452;2024-01-06T02:33:11;11.40;52.90
2783;DHT22;1399;47.072;15.452;2024-01-06T02:35:37;11.40;52.90
2783;DHT22;1399;47.072;15.452;2024-01-06T02:38:03;11.40;52.90
2783;DHT22;1399;47.072;15.452;2024-01-06T02:40:28;11.40;52.90
2783;DHT22;1399;47.072;15.452;2024-01-06T02:42:54;11.40;52.90
2783;DHT22;1399;47.072;15.452;2024-01-06T02:45:20;11.40;53.00
2783;DHT22;1399;47.072;15.452;2024-01-06T02:47:46;11.40;53.00
2783;DHT22;1399;47.072;15.452;2024-01-06T02:50:11;11.40;53.80
2783;DHT22;1399;47.072;15.452;2024-01-06T02:52:37;11.40;53.00
2783;DHT22;1399;47.072;15.452;2024-01-06T02:55:03;11.40;53.00
2783;DHT22;1399;47.072;15.452;2024-01-06T02:57:30;11.40;53.00
2783;DHT22;1399;47.072;15.452;2024-01-06T02:59:56;11.40;53.10
2783;DHT22;1399;47.072;15.452;2024-01-06T03:02:22;11.40;53.10
2783;DHT22;1399;47.072;15.452;2024-01-06T03:04:48;11.40;53.10
2783;DHT22;1399;47.072;15.452;2024-01-06T03:07:14;11.40;53.10
2783;DHT22;1399;47.072;15.452;2024-01-06T03:09:39;11.40;53.10
2783;DHT22;1399;47.072;15.452;2024-01-06T03:12:06;11.40;53.10
2783;DHT22;1399;47.072;15.452;2024-01-06T03:14:35;11.40;53.20
2783;DHT22;1399;47.072;15.452;2024-01-06T03:17:01;11.40;53.20
2783;DHT22;1399;47.072;15.452;2024-01-06T03:19:26;11.40;53.20
2783;DHT22;1399;47.072;15.452;2024-01-06T03:21:53;11.50;53.30
2783;DHT22;1399;47.072;15.452;2024-01-06T03:24:20;11.50;53.20
2783;DHT22;1399;47.072;15.452;2024-01-06T03:26:46;11.50;53.20
2783;DHT22;1399;47.072;15.452;2024-01-06T03:29:12;11.40;53.20
2783;DHT22;1399;47.072;15.452;2024-01-06T03:31:38;11.50;53.20
2783;DHT22;1399;47.072;15.452;2024-01-06T03:34:07;11.50;53.20
2783;DHT22;1399;47.072;15.452;2024-01-06T03:36:34;11.50;53.20
2783;DHT22;1399;47.072;15.452;2024-01-06T03:38:59;11.50;53.20
2783;DHT22;1399;47.072;15.452;2024-01-06T03:41:25;11.50;53.20
2783;DHT22;1399;47.072;15.452;2024-01-06T03:43:51;11.50;53.20
2783;DHT22;1399;47.072;15.452;2024-01-06T03:46:16;11.50;53.20
2783;DHT22;1399;47.072;15.452;2024-01-06T03:48:42;11.50;53.30
2783;DHT22;1399;47.072;15.452;2024-01-06T03:51:08;11.50;53.30
2783;DHT22;1399;47.072;15.452;2024-01-06T03:53:34;11.50;53.30
2783;DHT22;1399;47.072;15.452;2024-01-06T03:56:00;11.50;53.30
2783;DHT22;1399;47.072;15.452;2024-01-06T03:58:26;11.50;53.30
2783;DHT22;1399;47.072;15.452;2024-01-06T04:00:52;11.50;53.40
2783;DHT22;1399;47.072;15.452;2024-01-06T04:03:18;11.50;53.40
2783;DHT22;1399;47.072;15.452;2024-01-06T04:05:44;11.50;53.40
2783;DHT22;1399;47.072;15.452;2024-01-06T04:08:09;11.50;53.40
2783;DHT22;1399;47.072;15.452;2024-01-06T04:10:35;11.50;53.50
2783;DHT22;1399;47.072;15.452;2024-01-06T04:13:01;11.60;53.60
2783;DHT22;1399;47.072;15.452;2024-01-06T04:15:27;11.60;53.60
2783;DHT22;1399;47.072;15.452;2024-01-06T04:17:54;11.60;53.70
2783;DHT22;1399;47.072;15.452;2024-01-06T04:20:20;11.60;53.70
2783;DHT22;1399;47.072;15.452;2024-01-06T04:22:46;11.60;53.80
2783;DHT22;1399;47.072;15.452;2024-01-06T04:25:11;11.60;53.80
2783;DHT22;1399;47.072;15.452;2024-01-06T04:27:37;11.60;53.90
2783;DHT22;1399;47.072;15.452;2024-01-06T04:30:03;11.60;54.00
2783;DHT22;1399;47.072;15.452;2024-01-06T04:32:29;11.60;54.10
2783;DHT22;1399;47.072;15.452;2024-01-06T04:34:55;11.60;54.00
2783;DHT22;1399;47.072;15.452;2024-01-06T04:37:22;11.60;54.10
2783;DHT22;1399;47.072;15.452;2024-01-06T04:39:49;11.60;54.10
2783;DHT22;1399;47.072;15.452;2024-01-06T04:42:14;11.60;54.20
2783;DHT22;1399;47.072;15.452;2024-01-06T04:44:40;11.60;54.30
2783;DHT22;1399;47.072;15.452;2024-01-06T04:47:06;11.60;54.40
2783;DHT22;1399;47.072;15.452;2024-01-06T04:49:32;11.60;54.40
2783;DHT22;1399;47.072;15.452;2024-01-06T04:51:58;11.60;54.50
2783;DHT22;1399;47.072;15.452;2024-01-06T04:54:24;11.60;54.50
2783;DHT22;1399;47.072;15.452;2024-01-06T04:56:49;11.60;54.50
2783;DHT22;1399;47.072;15.452;2024-01-06T04:59:15;11.60;54.50
2783;DHT22;1399;47.072;15.452;2024-01-06T05:01:41;11.60;54.50
2783;DHT22;1399;47.072;15.452;2024-01-06T05:04:07;11.60;54.60
2783;DHT22;1399;47.072;15.452;2024-01-06T05:06:33;11.60;54.60
2783;DHT22;1399;47.072;15.452;2024-01-06T05:08:59;11.60;54.60
2783;DHT22;1399;47.072;15.452;2024-01-06T05:11:24;11.60;54.70
2783;DHT22;1399;47.072;15.452;2024-01-06T05:13:50;11.60;54.80
2783;DHT22;1399;47.072;15.452;2024-01-06T05:16:16;11.60;54.80
2783;DHT22;1399;47.072;15.452;2024-01-06T05:18:42;11.60;54.80
2783;DHT22;1399;47.072;15.452;2024-01-06T05:21:08;11.60;54.80
2783;DHT22;1399;47.072;15.452;2024-01-06T05:23:34;11.60;54.70
2783;DHT22;1399;47.072;15.452;2024-01-06T05:26:00;11.60;54.80
2783;DHT22;1399;47.072;15.452;2024-01-06T05:28:26;11.60;54.80
2783;DHT22;1399;47.072;15.452;2024-01-06T05:30:51;11.60;54.80
2783;DHT22;1399;47.072;15.452;2024-01-06T05:33:18;11.60;54.80
2783;DHT22;1399;47.072;15.452;2024-01-06T05:35:43;11.60;54.90
2783;DHT22;1399;47.072;15.452;2024-01-06T05:38:09;11.60;54.90
2783;DHT22;1399;47.072;15.452;2024-01-06T05:40:35;11.60;55.00
2783;DHT22;1399;47.072;15.452;2024-01-06T05:43:01;11.60;55.10
2783;DHT22;1399;47.072;15.452;2024-01-06T05:45:27;11.60;55.10
2783;DHT22;1399;47.072;15.452;2024-01-06T05:47:52;11.60;55.20
2783;DHT22;1399;47.072;15.452;2024-01-06T05:50:18;11.60;55.30
2783;DHT22;1399;47.072;15.452;2024-01-06T05:52:44;11.60;55.40
2783;DHT22;1399;47.072;15.452;2024-01-06T05:55:12;11.60;55.60
2783;DHT22;1399;47.072;15.452;2024-01-06T05:57:38;11.60;55.60
2783;DHT22;1399;47.072;15.452;2024-01-06T06:00:08;11.60;55.60
2783;DHT22;1399;47.072;15.452;2024-01-06T06:02:35;11.60;55.70
2783;DHT22;1399;47.072;15.452;2024-01-06T06:05:00;11.60;55.80
2783;DHT22;1399;47.072;15.452;2024-01-06T06:07:27;11.60;55.80
2783;DHT22;1399;47.072;15.452;2024-01-06T06:09:53;11.60;55.90
2783;DHT22;1399;47.072;15.452;2024-01-06T06:12:19;11.60;56.00
2783;DHT22;1399;47.072;15.452;2024-01-06T06:14:45;11.60;56.10
2783;DHT22;1399;47.072;15.452;2024-01-06T06:17:11;11.60;56.10
2783;DHT22;1399;47.072;15.452;2024-01-06T06:19:37;11.60;56.20
2783;DHT22;1399;47.072;15.452;2024-01-06T06:22:03;11.60;56.20
2783;DHT22;1399;47.072;15.452;2024-01-06T06:24:29;11.60;56.30
2783;DHT22;1399;47.072;15.452;2024-01-06T06:26:55;11.60;56.30
2783;DHT22;1399;47.072;15.452;2024-01-06T06:29:21;11.60;56.40
2783;DHT22;1399;47.072;15.452;2024-01-06T06:31:46;11.60;56.50
2783;DHT22;1399;47.072;15.452;2024-01-06T06:34:13;11.60;56.50
2783;DHT22;1399;47.072;15.452;2024-01-06T06:36:38;11.60;56.60
2783;DHT22;1399;47.072;15.452;2024-01-06T06:39:04;11.60;56.60
2783;DHT22;1399;47.072;15.452;2024-01-06T06:41:30;11.60;56.70
2783;DHT22;1399;47.072;15.452;2024-01-06T06:43:57;11.60;56.80
2783;DHT22;1399;47.072;15.452;2024-01-06T06:46:23;11.60;56.90
2783;DHT22;1399;47.072;15.452;2024-01-06T06:48:50;11.60;56.90
2783;DHT22;1399;47.072;15.452;2024-01-06T06:51:16;11.60;56.90
2783;DHT22;1399;47.072;15.452;2024-01-06T06:53:41;11.60;57.00
2783;DHT22;1399;47.072;15.452;2024-01-06T06:56:07;11.60;57.10
2783;DHT22;1399;47.072;15.452;2024-01-06T06:58:33;11.60;57.20
2783;DHT22;1399;47.072;15.452;2024-01-06T07:00:59;11.60;57.40
2783;DHT22;1399;47.072;15.452;2024-01-06T07:03:24;11.60;58.10
2783;DHT22;1399;47.072;15.452;2024-01-06T07:05:52;11.60;57.40
2783;DHT22;1399;47.072;15.452;2024-01-06T07:08:18;11.60;57.50
2783;DHT22;1399;47.072;15.452;2024-01-06T07:10:44;11.60;57.50
2783;DHT22;1399;47.072;15.452;2024-01-06T07:13:10;11.60;57.50
2783;DHT22;1399;47.072;15.452;2024-01-06T07:15:35;11.60;57.60
2783;DHT22;1399;47.072;15.452;2024-01-06T07:18:01;11.60;57.60
2783;DHT22;1399;47.072;15.452;2024-01-06T07:20:27;11.60;57.70
2783;DHT22;1399;47.072;15.452;2024-01-06T07:22:53;11.60;57.70
2783;DHT22;1399;47.072;15.452;2024-01-06T07:25:19;11.60;58.40
2783;DHT22;1399;47.072;15.452;2024-01-06T07:27:44;11.70;57.90
2783;DHT22;1399;47.072;15.452;2024-01-06T07:30:10;11.70;58.00
2783;DHT22;1399;47.072;15.452;2024-01-06T07:32:36;11.70;58.00
2783;DHT22;1399;47.072;15.452;2024-01-06T07:35:02;11.70;58.00
2783;DHT22;1399;47.072;15.452;2024-01-06T07:37:28;11.70;58.10
2783;DHT22;1399;47.072;15.452;2024-01-06T07:39:53;11.70;58.10
2783;DHT22;1399;47.072;15.452;2024-01-06T07:42:19;11.70;58.00
2783;DHT22;1399;47.072;15.452;2024-01-06T07:44:45;11.70;58.00
2783;DHT22;1399;47.072;15.452;2024-01-06T07:47:10;11.70;58.10
2783;DHT22;1399;47.072;15.452;2024-01-06T07:49:36;11.70;58.10
2783;DHT22;1399;47.072;15.452;2024-01-06T07:52:02;11.70;58.10
2783;DHT22;1399;47.072;15.452;2024-01-06T07:54:29;11.70;58.10
2783;DHT22;1399;47.072;15.452;2024-01-06T07:56:55;11.70;58.10
2783;DHT22;1399;47.072;15.452;2024-01-06T07:59:21;11.70;58.20
2783;DHT22;1399;47.072;15.452;2024-01-06T08:01:46;11.70;58.20
2783;DHT22;1399;47.072;15.452;2024-01-06T08:04:12;11.70;58.90
2783;DHT22;1399;47.072;15.452;2024-01-06T08:06:38;11.70;58.40
2783;DHT22;1399;47.072;15.452;2024-01-06T08:09:04;11.70;58.40
2783;DHT22;1399;47.072;15.452;2024-01-06T08:11:29;11.70;58.40
2783;DHT22;1399;47.072;15.452;2024-01-06T08:13:56;11.70;58.50
2783;DHT22;1399;47.072;15.452;2024-01-06T08:16:21;11.80;58.60
2783;DHT22;1399;47.072;15.452;2024-01-06T08:18:47;11.80;58.60
2783;DHT22;1399;47.072;15.452;2024-01-06T08:21:13;11.80;58.70
2783;DHT22;1399;47.072;15.452;2024-01-06T08:23:38;11.80;59.30
2783;DHT22;1399;47.072;15.452;2024-01-06T08:26:05;11.80;58.70
2783;DHT22;1399;47.072;15.452;2024-01-06T08:28:31;11.80;58.70
2783;DHT22;1399;47.072;15.452;2024-01-06T08:30:57;11.80;58.70
2783;DHT22;1399;47.072;15.452;2024-01-06T08:33:23;11.80;58.70
2783;DHT22;1399;47.072;15.452;2024-01-06T08:35:49;11.80;58.70
2783;DHT22;1399;47.072;15.452;2024-01-06T08:38:14;11.80;58.70
2783;DHT22;1399;47.072;15.452;2024-01-06T08:40:40;11.80;58.70
2783;DHT22;1399;47.072;15.452;2024-01-06T08:43:07;11.80;58.70
2783;DHT22;1399;47.072;15.452;2024-01-06T08:45:33;11.90;58.90
2783;DHT22;1399;47.072;15.452;2024-01-06T08:47:58;11.90;58.80
2783;DHT22;1399;47.072;15.452;2024-01-06T08:50:24;11.90;58.80
2783;DHT22;1399;47.072;15.452;2024-01-06T08:52:50;11.90;58.90
2783;DHT22;1399;47.072;15.452;2024-01-06T08:55:15;11.90;58.90
2783;DHT22;1399;47.072;15.452;2024-01-06T08:57:42;11.90;58.90
2783;DHT22;1399;47.072;15.452;2024-01-06T09:00:08;11.90;58.90
2783;DHT22;1399;47.072;15.452;2024-01-06T09:02:34;11.90;58.90
2783;DHT22;1399;47.072;15.452;2024-01-06T09:05:00;11.90;58.90
2783;DHT22;1399;47.072;15.452;2024-01-06T09:07:26;11.90;59.00
2783;DHT22;1399;47.072;15.452;2024-01-06T09:09:51;11.90;59.00
2783;DHT22;1399;47.072;15.452;2024-01-06T09:12:17;11.90;59.10
2783;DHT22;1399;47.072;15.452;2024-01-06T09:14:43;12.00;59.20
2783;DHT22;1399;47.072;15.452;2024-01-06T09:17:08;12.00;59.20
2783;DHT22;1399;47.072;15.452;2024-01-06T09:19:34;12.00;59.20
2783;DHT22;1399;47.072;15.452;2024-01-06T09:22:00;12.00;59.30
2783;DHT22;1399;47.072;15.452;2024-01-06T09:24:26;12.00;59.30
2783;DHT22;1399;47.072;15.452;2024-01-06T09:26:51;12.00;59.30
2783;DHT22;1399;47.072;15.452;2024-01-06T09:29:18;12.00;59.40
2783;DHT22;1399;47.072;15.452;2024-01-06T09:31:44;12.00;59.50
2783;DHT22;1399;47.072;15.452;2024-01-06T09:34:10;12.00;59.50
2783;DHT22;1399;47.072;15.452;2024-01-06T09:36:36;12.10;59.60
2783;DHT22;1399;47.072;15.452;2024-01-06T09:39:01;12.10;59.50
2783;DHT22;1399;47.072;15.452;2024-01-06T09:41:27;12.10;59.50
2783;DHT22;1399;47.072;15.452;2024-01-06T09:43:53;12.10;59.50
2783;DHT22;1399;47.072;15.452;2024-01-06T09:46:27;12.10;59.50
2783;DHT22;1399;47.072;15.452;2024-01-06T09:48:54;12.10;59.50
2783;DHT22;1399;47.072;15.452;2024-01-06T09:51:21;12.10;59.40
2783;DHT22;1399;47.072;15.452;2024-01-06T09:54:00;12.10;59.40
2783;DHT22;1399;47.072;15.452;2024-01-06T09:56:29;12.10;59.50
2783;DHT22;1399;47.072;15.452;2024-01-06T09:58:55;12.10;59.50
2783;DHT22;1399;47.072;15.452;2024-01-06T10:01:22;12.10;59.50
2783;DHT22;1399;47.072;15.452;2024-01-06T10:03:47;12.10;59.60
2783;DHT22;1399;47.072;15.452;2024-01-06T10:06:14;12.10;59.70
2783;DHT22;1399;47.072;15.452;2024-01-06T10:08:46;12.20;59.80
2783;DHT22;1399;47.072;15.452;2024-01-06T10:11:13;12.20;59.80
2783;DHT22;1399;47.072;15.452;2024-01-06T10:13:39;12.20;59.90
2783;DHT22;1399;47.072;15.452;2024-01-06T10:16:06;12.20;59.90
2783;DHT22;1399;47.072;15.452;2024-01-06T10:18:32;12.20;60.00
2783;DHT22;1399;47.072;15.452;2024-01-06T10:20:58;12.20;60.00
2783;DHT22;1399;47.072;15.452;2024-01-06T10:23:26;12.20;60.00
2783;DHT22;1399;47.072;15.452;2024-01-06T10:25:54;12.20;60.10
2783;DHT22;1399;47.072;15.452;2024-01-06T10:28:21;12.20;60.10
2783;DHT22;1399;47.072;15.452;2024-01-06T10:30:54;12.20;60.20
2783;DHT22;1399;47.072;15.452;2024-01-06T10:33:25;12.20;60.20
2783;DHT22;1399;47.072;15.452;2024-01-06T10:35:52;12.20;60.30
2783;DHT22;1399;47.072;15.452;2024-01-06T10:38:20;12.20;60.30
2783;DHT22;1399;47.072;15.452;2024-01-06T10:41:03;12.20;60.30
2783;DHT22;1399;47.072;15.452;2024-01-06T10:43:33;12.20;60.40
2783;DHT22;1399;47.072;15.452;2024-01-06T10:46:06;12.20;60.40
2783;DHT22;1399;47.072;15.452;2024-01-06T10:48:36;12.20;60.50
2783;DHT22;1399;47.072;15.452;2024-01-06T10:51:08;12.20;60.60
2783;DHT22;1399;47.072;15.452;2024-01-06T10:53:35;12.20;60.70
2783;DHT22;1399;47.072;15.452;2024-01-06T10:56:06;12.20;60.80
2783;DHT22;1399;47.072;15.452;2024-01-06T10:58:37;12.20;60.80
2783;DHT22;1399;47.072;15.452;2024-01-06T11:01:12;12.20;60.90
2783;DHT22;1399;47.072;15.452;2024-01-06T11:03:38;12.20;61.00
2783;DHT22;1399;47.072;15.452;2024-01-06T11:06:08;12.20;61.00
2783;DHT22;1399;47.072;15.452;2024-01-06T11:08:54;12.20;61.00
2783;DHT22;1399;47.072;15.452;2024-01-06T11:11:23;12.20;61.10
2783;DHT22;1399;47.072;15.452;2024-01-06T11:13:49;12.20;61.10
2783;DHT22;1399;47.072;15.452;2024-01-06T11:16:34;12.20;61.20
2783;DHT22;1399;47.072;15.452;2024-01-06T11:19:00;12.20;61.30
2783;DHT22;1399;47.072;15.452;2024-01-06T11:21:26;12.20;61.50
2783;DHT22;1399;47.072;15.452;2024-01-06T11:24:14;12.20;61.50
2783;DHT22;1399;47.072;15.452;2024-01-06T11:26:55;12.20;61.70
2783;DHT22;1399;47.072;15.452;2024-01-06T11:29:21;12.20;61.70
2783;DHT22;1399;47.072;15.452;2024-01-06T11:34:48;12.20;61.80
2783;DHT22;1399;47.072;15.452;2024-01-06T11:37:17;12.20;61.90
2783;DHT22;1399;47.072;15.452;2024-01-06T11:39:44;12.20;62.00
2783;DHT22;1399;47.072;15.452;2024-01-06T11:42:11;12.20;62.00
2783;DHT22;1399;47.072;15.452;2024-01-06T11:44:39;12.20;62.10
2783;DHT22;1399;47.072;15.452;2024-01-06T11:47:05;12.20;62.40
2783;DHT22;1399;47.072;15.452;2024-01-06T11:49:32;12.20;62.20
2783;DHT22;1399;47.072;15.452;2024-01-06T11:51:58;12.20;62.20
2783;DHT22;1399;47.072;15.452;2024-01-06T11:54:24;12.20;62.30
2783;DHT22;1399;47.072;15.452;2024-01-06T11:56:50;12.20;62.30
2783;DHT22;1399;47.072;15.452;2024-01-06T11:59:19;12.20;63.30
2783;DHT22;1399;47.072;15.452;2024-01-06T12:01:46;12.20;62.40
2783;DHT22;1399;47.072;15.452;2024-01-06T12:04:14;12.20;62.40
2783;DHT22;1399;47.072;15.452;2024-01-06T12:06:43;12.20;62.50
2783;DHT22;1399;47.072;15.452;2024-01-06T12:09:11;12.20;62.60
2783;DHT22;1399;47.072;15.452;2024-01-06T12:11:41;12.20;62.60
2783;DHT22;1399;47.072;15.452;2024-01-06T12:14:07;12.20;62.70
2783;DHT22;1399;47.072;15.452;2024-01-06T12:16:32;12.20;62.70
2783;DHT22;1399;47.072;15.452;2024-01-06T12:18:59;12.20;62.80
2783;DHT22;1399;47.072;15.452;2024-01-06T12:21:29;12.20;62.80
2783;DHT22;1399;47.072;15.452;2024-01-06T12:24:17;12.20;62.80
2783;DHT22;1399;47.072;15.452;2024-01-06T12:26:46;12.20;62.90
2783;DHT22;1399;47.072;15.452;2024-01-06T12:29:14;12.20;63.00
2783;DHT22;1399;47.072;15.452;2024-01-06T12:31:40;12.20;63.10
2783;DHT22;1399;47.072;15.452;2024-01-06T12:34:07;12.20;63.20
2783;DHT22;1399;47.072;15.452;2024-01-06T12:36:37;12.20;63.30
2783;DHT22;1399;47.072;15.452;2024-01-06T12:39:03;12.20;63.30
2783;DHT22;1399;47.072;15.452;2024-01-06T12:41:29;12.20;63.40
2783;DHT22;1399;47.072;15.452;2024-01-06T12:43:55;12.20;63.50
2783;DHT22;1399;47.072;15.452;2024-01-06T12:46:21;12.20;63.50
2783;DHT22;1399;47.072;15.452;2024-01-06T12:48:46;12.20;63.60
2783;DHT22;1399;47.072;15.452;2024-01-06T12:51:12;12.20;63.70
2783;DHT22;1399;47.072;15.452;2024-01-06T12:53:38;12.20;63.80
2783;DHT22;1399;47.072;15.452;2024-01-06T12:56:04;12.10;63.70
2783;DHT22;1399;47.072;15.452;2024-01-06T12:58:29;12.10;63.80
2783;DHT22;1399;47.072;15.452;2024-01-06T13:00:55;12.20;63.90
2783;DHT22;1399;47.072;15.452;2024-01-06T13:03:22;12.10;63.90
2783;DHT22;1399;47.072;15.452;2024-01-06T13:05:48;12.10;64.00
2783;DHT22;1399;47.072;15.452;2024-01-06T13:08:14;12.10;64.00
2783;DHT22;1399;47.072;15.452;2024-01-06T13:10:40;12.10;64.00
2783;DHT22;1399;47.072;15.452;2024-01-06T13:13:05;12.10;64.00
2783;DHT22;1399;47.072;15.452;2024-01-06T13:15:31;12.10;64.00
2783;DHT22;1399;47.072;15.452;2024-01-06T13:17:57;12.10;64.10
2783;DHT22;1399;47.072;15.452;2024-01-06T13:20:23;12.10;64.20
2783;DHT22;1399;47.072;15.452;2024-01-06T13:22:48;12.10;64.10
2783;DHT22;1399;47.072;15.452;2024-01-06T13:25:17;12.10;64.20
2783;DHT22;1399;47.072;15.452;2024-01-06T13:27:42;12.10;64.20
2783;DHT22;1399;47.072;15.452;2024-01-06T13:30:08;12.10;64.30
2783;DHT22;1399;47.072;15.452;2024-01-06T13:32:35;12.20;64.40
2783;DHT22;1399;47.072;15.452;2024-01-06T13:35:01;12.20;64.50
2783;DHT22;1399;47.072;15.452;2024-01-06T13:37:31;12.10;64.30
2783;DHT22;1399;47.072;15.452;2024-01-06T13:39:57;12.20;64.40
2783;DHT22;1399;47.072;15.452;2024-01-06T13:42:23;12.20;64.40
2783;DHT22;1399;47.072;15.452;2024-01-06T13:44:48;12.20;64.40
2783;DHT22;1399;47.072;15.452;2024-01-06T13:47:14;12.20;64.30
2783;DHT22;1399;47.072;15.452;2024-01-06T13:49:40;12.20;64.30
2783;DHT22;1399;47.072;15.452;2024-01-06T13:52:07;12.20;64.30
2783;DHT22;1399;47.072;15.452;2024-01-06T13:54:35;12.20;64.20
2783;DHT22;1399;47.072;15.452;2024-01-06T13:57:01;12.20;64.10
2783;DHT22;1399;47.072;15.452;2024-01-06T13:59:28;12.20;64.20
2783;DHT22;1399;47.072;15.452;2024-01-06T14:01:54;12.20;64.20
2783;DHT22;1399;47.072;15.452;2024-01-06T14:04:20;12.20;64.20
2783;DHT22;1399;47.072;15.452;2024-01-06T14:06:49;12.20;64.00
2783;DHT22;1399;47.072;15.452;2024-01-06T14:09:21;12.20;64.00
2783;DHT22;1399;47.072;15.452;2024-01-06T14:11:47;12.20;63.90
2783;DHT22;1399;47.072;15.452;2024-01-06T14:14:13;12.20;63.80
2783;DHT22;1399;47.072;15.452;2024-01-06T14:16:38;12.20;64.70
2783;DHT22;1399;47.072;15.452;2024-01-06T14:19:04;12.20;63.80
2783;DHT22;1399;47.072;15.452;2024-01-06T14:21:30;12.20;63.70
2783;DHT22;1399;47.072;15.452;2024-01-06T14:23:55;12.20;63.60
2783;DHT22;1399;47.072;15.452;2024-01-06T14:26:21;12.20;63.50
2783;DHT22;1399;47.072;15.452;2024-01-06T14:28:47;12.10;63.30
2783;DHT22;1399;47.072;15.452;2024-01-06T14:31:13;12.10;63.20
2783;DHT22;1399;47.072;15.452;2024-01-06T14:33:39;12.10;63.00
2783;DHT22;1399;47.072;15.452;2024-01-06T14:36:05;12.10;62.90
2783;DHT22;1399;47.072;15.452;2024-01-06T14:38:31;12.10;62.70
2783;DHT22;1399;47.072;15.452;2024-01-06T14:40:56;12.10;62.70
2783;DHT22;1399;47.072;15.452;2024-01-06T14:43:22;12.10;62.60
2783;DHT22;1399;47.072;15.452;2024-01-06T14:45:48;12.10;62.50
2783;DHT22;1399;47.072;15.452;2024-01-06T14:48:14;12.10;62.50
2783;DHT22;1399;47.072;15.452;2024-01-06T14:50:39;12.10;62.30
2783;DHT22;1399;47.072;15.452;2024-01-06T14:53:05;12.10;62.20
2783;DHT22;1399;47.072;15.452;2024-01-06T14:55:32;12.10;62.10
2783;DHT22;1399;47.072;15.452;2024-01-06T14:57:57;12.10;62.10
2783;DHT22;1399;47.072;15.452;2024-01-06T15:00:23;12.00;61.90
2783;DHT22;1399;47.072;15.452;2024-01-06T15:02:49;12.00;61.80
2783;DHT22;1399;47.072;15.452;2024-01-06T15:05:15;12.00;61.70
2783;DHT22;1399;47.072;15.452;2024-01-06T15:07:41;12.00;61.70
2783;DHT22;1399;47.072;15.452;2024-01-06T15:10:07;12.00;61.70
2783;DHT22;1399;47.072;15.452;2024-01-06T15:12:35;12.00;61.60
2783;DHT22;1399;47.072;15.452;2024-01-06T15:15:01;12.00;61.60
2783;DHT22;1399;47.072;15.452;2024-01-06T15:17:26;12.00;61.40
2783;DHT22;1399;47.072;15.452;2024-01-06T15:19:52;12.00;61.30
2783;DHT22;1399;47.072;15.452;2024-01-06T15:22:18;11.90;61.20
2783;DHT22;1399;47.072;15.452;2024-01-06T15:24:44;11.90;61.20
2783;DHT22;1399;47.072;15.452;2024-01-06T15:27:10;11.90;61.10
2783;DHT22;1399;47.072;15.452;2024-01-06T15:29:36;11.90;61.00
2783;DHT22;1399;47.072;15.452;2024-01-06T15:32:02;11.90;60.90
2783;DHT22;1399;47.072;15.452;2024-01-06T15:34:28;11.90;60.90
2783;DHT22;1399;47.072;15.452;2024-01-06T15:36:53;11.90;60.80
2783;DHT22;1399;47.072;15.452;2024-01-06T15:39:19;11.90;60.80
2783;DHT22;1399;47.072;15.452;2024-01-06T15:41:45;11.90;60.70
2783;DHT22;1399;47.072;15.452;2024-01-06T15:44:11;11.90;60.60